sensor_id;sensor_type;location;lat;lon;timestamp;P1;durP1;ratioP1;P2;durP2;ratioP2
12194;SDS011;27023;42.680;23.132;2022-10-29T00:00:10;19.90;;;19.10;;
12194;SDS011;27023;42.680;23.132;2022-10-29T00:02:37;21.67;;;20.77;;
12194;SDS011;27023;42.680;23.132;2022-10-29T00:05:05;21.93;;;21.03;;
12194;SDS011;27023;42.680;23.132;2022-10-29T00:07:33;18.30;;;17.60;;
12194;SDS011;27023;42.680;23.132;2022-10-29T00:10:00;23.77;;;22.77;;
12194;SDS011;27023;42.680;23.132;2022-10-29T00:12:26;25.27;;;24.20;;
12194;SDS011;27023;42.680;23.132;2022-10-29T00:14:53;23.97;;;22.97;;
12194;SDS011;27023;42.680;23.132;2022-10-29T00:17:20;24.70;;;23.60;;
12194;SDS011;27023;42.680;23.132;2022-10-29T00:19:46;24.37;;;23.27;;
12194;SDS011;27023;42.680;23.132;2022-10-29T00:22:15;25.70;;;24.50;;
12194;SDS011;27023;42.680;23.132;2022-10-29T00:24:41;26.23;;;25.03;;
12194;SDS011;27023;42.680;23.132;2022-10-29T00:27:08;31.67;;;30.13;;
12194;SDS011;27023;42.680;23.132;2022-10-29T00:29:35;35.50;;;33.70;;
12194;SDS011;27023;42.680;23.132;2022-10-29T00:32:01;33.20;;;31.63;;
12194;SDS011;27023;42.680;23.132;2022-10-29T00:34:28;22.60;;;21.60;;
12194;SDS011;27023;42.680;23.132;2022-10-29T00:36:55;18.73;;;17.93;;
12194;SDS011;27023;42.680;23.132;2022-10-29T00:39:23;19.57;;;18.73;;
12194;SDS011;27023;42.680;23.132;2022-10-29T00:41:49;22.03;;;21.03;;
12194;SDS011;27023;42.680;23.132;2022-10-29T00:47:09;19.60;;;18.83;;
12194;SDS011;27023;42.680;23.132;2022-10-29T00:49:42;21.73;;;20.80;;
12194;SDS011;27023;42.680;23.132;2022-10-29T00:52:11;24.10;;;23.00;;
12194;SDS011;27023;42.680;23.132;2022-10-29T00:54:41;22.80;;;21.80;;
12194;SDS011;27023;42.680;23.132;2022-10-29T00:57:10;20.37;;;19.57;;
12194;SDS011;27023;42.680;23.132;2022-10-29T00:59:39;19.80;;;19.00;;
12194;SDS011;27023;42.680;23.132;2022-10-29T01:02:08;19.80;;;19.00;;
12194;SDS011;27023;42.680;23.132;2022-10-29T01:04:35;18.17;;;17.47;;
12194;SDS011;27023;42.680;23.132;2022-10-29T01:07:02;17.10;;;16.50;;
12194;SDS011;27023;42.680;23.132;2022-10-29T01:09:30;16.27;;;15.67;;
12194;SDS011;27023;42.680;23.132;2022-10-29T01:12:01;16.23;;;15.63;;
12194;SDS011;27023;42.680;23.132;2022-10-29T01:14:41;17.93;;;17.17;;
12194;SDS011;27023;42.680;23.132;2022-10-29T01:17:22;18.43;;;17.67;;
12194;SDS011;27023;42.680;23.132;2022-10-29T01:23:02;19.83;;;18.93;;
12194;SDS011;27023;42.680;23.132;2022-10-29T01:25:52;20.53;;;19.63;;
12194;SDS011;27023;42.680;23.132;2022-10-29T01:28:45;16.67;;;15.97;;
12194;SDS011;27023;42.680;23.132;2022-10-29T01:31:30;15.13;;;14.53;;
12194;SDS011;27023;42.680;23.132;2022-10-29T01:34:03;14.23;;;13.70;;
12194;SDS011;27023;42.680;23.132;2022-10-29T01:36:37;14.00;;;13.50;;
12194;SDS011;27023;42.680;23.132;2022-10-29T01:39:12;14.53;;;14.03;;
12194;SDS011;27023;42.680;23.132;2022-10-29T01:41:48;13.20;;;12.70;;
12194;SDS011;27023;42.680;23.132;2022-10-29T01:44:23;13.57;;;13.10;;
12194;SDS011;27023;42.680;23.132;2022-10-29T01:46:56;13.13;;;12.63;;
12194;SDS011;27023;42.680;23.132;2022-10-29T01:49:27;14.13;;;13.63;;
12194;SDS011;27023;42.680;23.132;2022-10-29T01:51:57;14.50;;;13.90;;
12194;SDS011;27023;42.680;23.132;2022-10-29T01:54:27;14.67;;;14.07;;
12194;SDS011;27023;42.680;23.132;2022-10-29T01:56:54;14.50;;;13.90;;
12194;SDS011;27023;42.680;23.132;2022-10-29T01:59:22;12.07;;;11.67;;
12194;SDS011;27023;42.680;23.132;2022-10-29T02:01:56;11.20;;;10.90;;
12194;SDS011;27023;42.680;23.132;2022-10-29T02:07:30;12.27;;;11.87;;
12194;SDS011;27023;42.680;23.132;2022-10-29T02:10:09;13.70;;;13.20;;
12194;SDS011;27023;42.680;23.132;2022-10-29T02:12:45;14.10;;;13.60;;
12194;SDS011;27023;42.680;23.132;2022-10-29T02:15:14;12.67;;;12.27;;
12194;SDS011;27023;42.680;23.132;2022-10-29T02:17:45;13.00;;;12.57;;
12194;SDS011;27023;42.680;23.132;2022-10-29T02:20:12;14.80;;;14.30;;
12194;SDS011;27023;42.680;23.132;2022-10-29T02:22:40;15.07;;;14.53;;
12194;SDS011;27023;42.680;23.132;2022-10-29T02:25:07;15.07;;;14.57;;
12194;SDS011;27023;42.680;23.132;2022-10-29T02:27:35;15.10;;;14.53;;
12194;SDS011;27023;42.680;23.132;2022-10-29T02:30:02;14.10;;;13.63;;
12194;SDS011;27023;42.680;23.132;2022-10-29T02:32:30;14.83;;;14.30;;
12194;SDS011;27023;42.680;23.132;2022-10-29T02:34:58;14.30;;;13.83;;
12194;SDS011;27023;42.680;23.132;2022-10-29T02:37:25;15.17;;;14.63;;
12194;SDS011;27023;42.680;23.132;2022-10-29T02:39:52;13.77;;;13.27;;
12194;SDS011;27023;42.680;23.132;2022-10-29T02:42:18;12.90;;;12.50;;
12194;SDS011;27023;42.680;23.132;2022-10-29T02:44:45;13.60;;;13.17;;
12194;SDS011;27023;42.680;23.132;2022-10-29T02:47:12;14.17;;;13.67;;
12194;SDS011;27023;42.680;23.132;2022-10-29T02:49:39;15.60;;;15.00;;
12194;SDS011;27023;42.680;23.132;2022-10-29T02:52:07;11.90;;;11.43;;
12194;SDS011;27023;42.680;23.132;2022-10-29T02:54:33;16.23;;;15.63;;
12194;SDS011;27023;42.680;23.132;2022-10-29T02:57:00;16.30;;;15.70;;
12194;SDS011;27023;42.680;23.132;2022-10-29T02:59:27;15.17;;;14.57;;
12194;SDS011;27023;42.680;23.132;2022-10-29T03:01:53;14.63;;;14.03;;
12194;SDS011;27023;42.680;23.132;2022-10-29T03:04:20;14.60;;;14.10;;
12194;SDS011;27023;42.680;23.132;2022-10-29T03:06:47;15.13;;;14.53;;
12194;SDS011;27023;42.680;23.132;2022-10-29T03:09:15;14.70;;;14.10;;
12194;SDS011;27023;42.680;23.132;2022-10-29T03:11:42;13.73;;;13.23;;
12194;SDS011;27023;42.680;23.132;2022-10-29T03:14:09;14.83;;;14.30;;
12194;SDS011;27023;42.680;23.132;2022-10-29T03:16:50;14.20;;;13.73;;
12194;SDS011;27023;42.680;23.132;2022-10-29T03:19:17;14.33;;;13.83;;
12194;SDS011;27023;42.680;23.132;2022-10-29T03:21:43;11.77;;;11.47;;
12194;SDS011;27023;42.680;23.132;2022-10-29T03:24:10;14.27;;;13.77;;
12194;SDS011;27023;42.680;23.132;2022-10-29T03:26:38;14.03;;;13.60;;
12194;SDS011;27023;42.680;23.132;2022-10-29T03:29:05;15.23;;;14.73;;
12194;SDS011;27023;42.680;23.132;2022-10-29T03:31:31;14.07;;;13.63;;
12194;SDS011;27023;42.680;23.132;2022-10-29T03:33:58;15.40;;;14.80;;
12194;SDS011;27023;42.680;23.132;2022-10-29T03:36:25;14.33;;;13.83;;
12194;SDS011;27023;42.680;23.132;2022-10-29T03:38:52;14.37;;;13.77;;
12194;SDS011;27023;42.680;23.132;2022-10-29T03:41:18;13.67;;;13.17;;
12194;SDS011;27023;42.680;23.132;2022-10-29T03:43:46;14.10;;;13.60;;
12194;SDS011;27023;42.680;23.132;2022-10-29T03:46:13;14.67;;;14.17;;
12194;SDS011;27023;42.680;23.132;2022-10-29T03:48:40;15.40;;;14.80;;
12194;SDS011;27023;42.680;23.132;2022-10-29T03:51:06;15.80;;;15.17;;
12194;SDS011;27023;42.680;23.132;2022-10-29T03:53:35;15.40;;;14.80;;
12194;SDS011;27023;42.680;23.132;2022-10-29T03:56:02;15.00;;;14.40;;
12194;SDS011;27023;42.680;23.132;2022-10-29T03:58:30;14.43;;;13.87;;
12194;SDS011;27023;42.680;23.132;2022-10-29T04:00:59;14.50;;;13.93;;
12194;SDS011;27023;42.680;23.132;2022-10-29T04:03:28;13.87;;;13.37;;
12194;SDS011;27023;42.680;23.132;2022-10-29T04:05:57;14.43;;;13.83;;
12194;SDS011;27023;42.680;23.132;2022-10-29T04:08:25;14.67;;;14.17;;
12194;SDS011;27023;42.680;23.132;2022-10-29T04:10:52;15.73;;;15.13;;
12194;SDS011;27023;42.680;23.132;2022-10-29T04:13:19;16.80;;;16.00;;
12194;SDS011;27023;42.680;23.132;2022-10-29T04:15:46;16.93;;;16.23;;
12194;SDS011;27023;42.680;23.132;2022-10-29T04:18:14;16.87;;;16.20;;
12194;SDS011;27023;42.680;23.132;2022-10-29T04:20:41;15.53;;;14.93;;
12194;SDS011;27023;42.680;23.132;2022-10-29T04:23:07;15.47;;;14.87;;
12194;SDS011;27023;42.680;23.132;2022-10-29T04:25:34;15.27;;;14.67;;
12194;SDS011;27023;42.680;23.132;2022-10-29T04:28:01;17.50;;;16.80;;
12194;SDS011;27023;42.680;23.132;2022-10-29T04:30:27;22.53;;;21.50;;
12194;SDS011;27023;42.680;23.132;2022-10-29T04:32:55;22.10;;;21.10;;
12194;SDS011;27023;42.680;23.132;2022-10-29T04:35:24;21.77;;;20.77;;
12194;SDS011;27023;42.680;23.132;2022-10-29T04:37:51;18.43;;;17.67;;
12194;SDS011;27023;42.680;23.132;2022-10-29T04:40:19;17.60;;;16.83;;
12194;SDS011;27023;42.680;23.132;2022-10-29T04:42:47;18.93;;;18.13;;
12194;SDS011;27023;42.680;23.132;2022-10-29T04:45:14;17.60;;;16.90;;
12194;SDS011;27023;42.680;23.132;2022-10-29T04:47:41;19.27;;;18.37;;
12194;SDS011;27023;42.680;23.132;2022-10-29T04:50:08;18.00;;;17.30;;
12194;SDS011;27023;42.680;23.132;2022-10-29T04:52:36;18.53;;;17.73;;
12194;SDS011;27023;42.680;23.132;2022-10-29T04:55:03;18.03;;;17.23;;
12194;SDS011;27023;42.680;23.132;2022-10-29T04:57:30;15.57;;;14.97;;
12194;SDS011;27023;42.680;23.132;2022-10-29T04:59:56;17.07;;;16.37;;
12194;SDS011;27023;42.680;23.132;2022-10-29T05:02:23;16.10;;;15.40;;
12194;SDS011;27023;42.680;23.132;2022-10-29T05:04:50;17.13;;;16.43;;
12194;SDS011;27023;42.680;23.132;2022-10-29T05:07:16;17.53;;;16.83;;
12194;SDS011;27023;42.680;23.132;2022-10-29T05:09:44;20.57;;;19.70;;
12194;SDS011;27023;42.680;23.132;2022-10-29T05:12:11;21.03;;;20.13;;
12194;SDS011;27023;42.680;23.132;2022-10-29T05:14:38;19.93;;;19.10;;
12194;SDS011;27023;42.680;23.132;2022-10-29T05:17:04;20.40;;;19.57;;
12194;SDS011;27023;42.680;23.132;2022-10-29T05:19:31;20.73;;;19.90;;
12194;SDS011;27023;42.680;23.132;2022-10-29T05:21:58;20.60;;;19.80;;
12194;SDS011;27023;42.680;23.132;2022-10-29T05:24:24;19.70;;;18.93;;
12194;SDS011;27023;42.680;23.132;2022-10-29T05:26:52;21.77;;;20.87;;
12194;SDS011;27023;42.680;23.132;2022-10-29T05:29:19;20.73;;;19.93;;
12194;SDS011;27023;42.680;23.132;2022-10-29T05:31:46;21.60;;;20.70;;
12194;SDS011;27023;42.680;23.132;2022-10-29T05:34:12;25.47;;;24.33;;
12194;SDS011;27023;42.680;23.132;2022-10-29T05:36:39;25.23;;;24.07;;
12194;SDS011;27023;42.680;23.132;2022-10-29T05:39:06;26.20;;;25.00;;
12194;SDS011;27023;42.680;23.132;2022-10-29T05:41:32;24.37;;;23.27;;
12194;SDS011;27023;42.680;23.132;2022-10-29T05:44:00;23.03;;;22.00;;
12194;SDS011;27023;42.680;23.132;2022-10-29T05:46:27;22.17;;;21.20;;
12194;SDS011;27023;42.680;23.132;2022-10-29T05:48:54;21.87;;;20.90;;
12194;SDS011;27023;42.680;23.132;2022-10-29T05:51:21;21.63;;;20.63;;
12194;SDS011;27023;42.680;23.132;2022-10-29T05:53:48;21.17;;;20.27;;
12194;SDS011;27023;42.680;23.132;2022-10-29T05:56:15;21.57;;;20.63;;
12194;SDS011;27023;42.680;23.132;2022-10-29T05:58:42;19.57;;;18.77;;
12194;SDS011;27023;42.680;23.132;2022-10-29T06:01:10;19.13;;;18.33;;
12194;SDS011;27023;42.680;23.132;2022-10-29T06:03:36;17.77;;;17.07;;
12194;SDS011;27023;42.680;23.132;2022-10-29T06:06:03;19.40;;;18.50;;
12194;SDS011;27023;42.680;23.132;2022-10-29T06:08:30;19.10;;;18.30;;
12194;SDS011;27023;42.680;23.132;2022-10-29T06:10:59;19.40;;;18.57;;
12194;SDS011;27023;42.680;23.132;2022-10-29T06:13:26;20.47;;;19.57;;
12194;SDS011;27023;42.680;23.132;2022-10-29T06:15:55;21.63;;;20.63;;
12194;SDS011;27023;42.680;23.132;2022-10-29T06:18:24;20.20;;;19.33;;
12194;SDS011;27023;42.680;23.132;2022-10-29T06:20:51;18.53;;;17.77;;
12194;SDS011;27023;42.680;23.132;2022-10-29T06:23:17;17.60;;;16.90;;
12194;SDS011;27023;42.680;23.132;2022-10-29T06:25:44;20.67;;;19.77;;
12194;SDS011;27023;42.680;23.132;2022-10-29T06:28:11;20.27;;;19.40;;
12194;SDS011;27023;42.680;23.132;2022-10-29T06:30:39;20.50;;;19.60;;
12194;SDS011;27023;42.680;23.132;2022-10-29T06:33:06;19.90;;;19.07;;
12194;SDS011;27023;42.680;23.132;2022-10-29T06:35:34;20.33;;;19.50;;
12194;SDS011;27023;42.680;23.132;2022-10-29T06:38:01;21.50;;;20.60;;
12194;SDS011;27023;42.680;23.132;2022-10-29T06:40:28;19.93;;;19.13;;
12194;SDS011;27023;42.680;23.132;2022-10-29T06:42:58;17.30;;;16.60;;
12194;SDS011;27023;42.680;23.132;2022-10-29T06:45:25;14.77;;;14.17;;
12194;SDS011;27023;42.680;23.132;2022-10-29T06:47:58;15.33;;;14.73;;
12194;SDS011;27023;42.680;23.132;2022-10-29T06:50:27;15.00;;;14.40;;
12194;SDS011;27023;42.680;23.132;2022-10-29T06:52:56;16.33;;;15.67;;
12194;SDS011;27023;42.680;23.132;2022-10-29T06:55:24;15.83;;;15.23;;
12194;SDS011;27023;42.680;23.132;2022-10-29T06:57:55;18.20;;;17.50;;
12194;SDS011;27023;42.680;23.132;2022-10-29T07:00:23;15.07;;;14.47;;
12194;SDS011;27023;42.680;23.132;2022-10-29T07:02:49;13.10;;;12.67;;
12194;SDS011;27023;42.680;23.132;2022-10-29T07:05:16;17.43;;;16.73;;
12194;SDS011;27023;42.680;23.132;2022-10-29T07:07:43;18.97;;;18.17;;
12194;SDS011;27023;42.680;23.132;2022-10-29T07:10:11;21.90;;;21.00;;
12194;SDS011;27023;42.680;23.132;2022-10-29T07:12:38;16.57;;;15.97;;
12194;SDS011;27023;42.680;23.132;2022-10-29T07:15:06;15.77;;;15.17;;
12194;SDS011;27023;42.680;23.132;2022-10-29T07:17:33;12.70;;;12.30;;
12194;SDS011;27023;42.680;23.132;2022-10-29T07:20:00;9.70;;;9.50;;
12194;SDS011;27023;42.680;23.132;2022-10-29T07:22:26;11.73;;;11.33;;
12194;SDS011;27023;42.680;23.132;2022-10-29T07:24:53;11.23;;;10.90;;
12194;SDS011;27023;42.680;23.132;2022-10-29T07:27:21;11.63;;;11.27;;
12194;SDS011;27023;42.680;23.132;2022-10-29T07:29:48;8.60;;;8.40;;
12194;SDS011;27023;42.680;23.132;2022-10-29T07:32:14;8.70;;;8.50;;
12194;SDS011;27023;42.680;23.132;2022-10-29T07:34:41;1.60;;;1.60;;
12194;SDS011;27023;42.680;23.132;2022-10-29T07:37:08;1.63;;;1.63;;
12194;SDS011;27023;42.680;23.132;2022-10-29T07:39:34;1.83;;;1.83;;
12194;SDS011;27023;42.680;23.132;2022-10-29T07:42:01;3.23;;;3.03;;
12194;SDS011;27023;42.680;23.132;2022-10-29T07:44:29;3.27;;;3.03;;
12194;SDS011;27023;42.680;23.132;2022-10-29T07:46:56;2.30;;;2.30;;
12194;SDS011;27023;42.680;23.132;2022-10-29T07:49:22;1.63;;;1.63;;
12194;SDS011;27023;42.680;23.132;2022-10-29T07:51:49;2.10;;;2.00;;
12194;SDS011;27023;42.680;23.132;2022-10-29T07:54:16;1.73;;;1.73;;
12194;SDS011;27023;42.680;23.132;2022-10-29T07:56:43;1.90;;;1.90;;
12194;SDS011;27023;42.680;23.132;2022-10-29T07:59:09;2.13;;;2.13;;
12194;SDS011;27023;42.680;23.132;2022-10-29T08:01:39;2.10;;;2.10;;
12194;SDS011;27023;42.680;23.132;2022-10-29T08:04:06;2.23;;;2.23;;
12194;SDS011;27023;42.680;23.132;2022-10-29T08:06:33;1.37;;;1.37;;
12194;SDS011;27023;42.680;23.132;2022-10-29T08:08:59;2.37;;;2.37;;
12194;SDS011;27023;42.680;23.132;2022-10-29T08:11:26;1.73;;;1.73;;
12194;SDS011;27023;42.680;23.132;2022-10-29T08:13:53;1.60;;;1.60;;
12194;SDS011;27023;42.680;23.132;2022-10-29T08:16:19;2.60;;;2.60;;
12194;SDS011;27023;42.680;23.132;2022-10-29T08:18:47;3.60;;;3.50;;
12194;SDS011;27023;42.680;23.132;2022-10-29T08:21:14;4.17;;;4.10;;
12194;SDS011;27023;42.680;23.132;2022-10-29T08:23:41;3.23;;;3.23;;
12194;SDS011;27023;42.680;23.132;2022-10-29T08:26:08;4.30;;;4.20;;
12194;SDS011;27023;42.680;23.132;2022-10-29T08:28:35;3.93;;;3.93;;
12194;SDS011;27023;42.680;23.132;2022-10-29T08:31:02;4.77;;;4.60;;
12194;SDS011;27023;42.680;23.132;2022-10-29T08:33:28;3.73;;;3.73;;
12194;SDS011;27023;42.680;23.132;2022-10-29T08:35:56;4.33;;;4.33;;
12194;SDS011;27023;42.680;23.132;2022-10-29T08:38:23;4.40;;;4.30;;
12194;SDS011;27023;42.680;23.132;2022-10-29T08:40:58;3.20;;;3.20;;
12194;SDS011;27023;42.680;23.132;2022-10-29T08:43:50;3.40;;;3.40;;
12194;SDS011;27023;42.680;23.132;2022-10-29T08:46:36;3.30;;;3.30;;
12194;SDS011;27023;42.680;23.132;2022-10-29T08:49:10;3.20;;;3.20;;
12194;SDS011;27023;42.680;23.132;2022-10-29T08:51:44;3.33;;;3.23;;
12194;SDS011;27023;42.680;23.132;2022-10-29T08:54:17;2.50;;;2.50;;
12194;SDS011;27023;42.680;23.132;2022-10-29T08:56:45;3.13;;;2.97;;
12194;SDS011;27023;42.680;23.132;2022-10-29T08:59:15;1.87;;;1.87;;
12194;SDS011;27023;42.680;23.132;2022-10-29T09:01:43;4.63;;;2.33;;
12194;SDS011;27023;42.680;23.132;2022-10-29T09:04:15;3.00;;;2.90;;
12194;SDS011;27023;42.680;23.132;2022-10-29T09:07:18;2.00;;;1.87;;
12194;SDS011;27023;42.680;23.132;2022-10-29T09:09:55;2.00;;;1.93;;
12194;SDS011;27023;42.680;23.132;2022-10-29T09:12:35;1.57;;;1.57;;
12194;SDS011;27023;42.680;23.132;2022-10-29T09:15:17;1.20;;;1.20;;
12194;SDS011;27023;42.680;23.132;2022-10-29T09:17:58;1.80;;;1.70;;
12194;SDS011;27023;42.680;23.132;2022-10-29T09:20:37;1.70;;;1.60;;
12194;SDS011;27023;42.680;23.132;2022-10-29T09:23:16;2.83;;;2.73;;
12194;SDS011;27023;42.680;23.132;2022-10-29T09:25:55;1.83;;;1.73;;
12194;SDS011;27023;42.680;23.132;2022-10-29T09:28:31;2.00;;;1.90;;
12194;SDS011;27023;42.680;23.132;2022-10-29T09:31:09;1.33;;;1.33;;
12194;SDS011;27023;42.680;23.132;2022-10-29T09:33:44;0.93;;;0.93;;
12194;SDS011;27023;42.680;23.132;2022-10-29T09:36:14;1.07;;;1.07;;
12194;SDS011;27023;42.680;23.132;2022-10-29T09:38:45;1.23;;;1.23;;
12194;SDS011;27023;42.680;23.132;2022-10-29T09:41:18;1.60;;;1.17;;
12194;SDS011;27023;42.680;23.132;2022-10-29T09:43:47;7.37;;;4.67;;
12194;SDS011;27023;42.680;23.132;2022-10-29T09:46:20;4.20;;;4.00;;
12194;SDS011;27023;42.680;23.132;2022-10-29T09:49:00;1.67;;;1.67;;
12194;SDS011;27023;42.680;23.132;2022-10-29T09:51:40;1.60;;;1.60;;
12194;SDS011;27023;42.680;23.132;2022-10-29T09:54:12;1.37;;;1.37;;
12194;SDS011;27023;42.680;23.132;2022-10-29T09:56:40;1.67;;;1.67;;
12194;SDS011;27023;42.680;23.132;2022-10-29T09:59:09;1.80;;;1.80;;
12194;SDS011;27023;42.680;23.132;2022-10-29T10:01:42;1.50;;;1.50;;
12194;SDS011;27023;42.680;23.132;2022-10-29T10:04:11;1.10;;;1.10;;
12194;SDS011;27023;42.680;23.132;2022-10-29T10:07:01;0.90;;;0.90;;
12194;SDS011;27023;42.680;23.132;2022-10-29T10:09:52;1.30;;;1.30;;
12194;SDS011;27023;42.680;23.132;2022-10-29T10:12:21;1.90;;;1.90;;
12194;SDS011;27023;42.680;23.132;2022-10-29T10:15:00;1.20;;;1.20;;
12194;SDS011;27023;42.680;23.132;2022-10-29T10:17:30;1.60;;;1.60;;
12194;SDS011;27023;42.680;23.132;2022-10-29T10:20:26;2.00;;;2.00;;
12194;SDS011;27023;42.680;23.132;2022-10-29T10:22:58;1.30;;;1.30;;
12194;SDS011;27023;42.680;23.132;2022-10-29T10:25:33;1.67;;;1.20;;
12194;SDS011;27023;42.680;23.132;2022-10-29T10:28:14;1.40;;;1.30;;
12194;SDS011;27023;42.680;23.132;2022-10-29T10:30:43;1.43;;;1.43;;
12194;SDS011;27023;42.680;23.132;2022-10-29T10:33:10;1.13;;;1.13;;
12194;SDS011;27023;42.680;23.132;2022-10-29T10:35:47;1.90;;;1.90;;
12194;SDS011;27023;42.680;23.132;2022-10-29T10:38:13;1.53;;;1.53;;
12194;SDS011;27023;42.680;23.132;2022-10-29T10:40:42;2.20;;;2.20;;
12194;SDS011;27023;42.680;23.132;2022-10-29T10:43:13;1.70;;;1.70;;
12194;SDS011;27023;42.680;23.132;2022-10-29T10:45:49;2.97;;;1.67;;
12194;SDS011;27023;42.680;23.132;2022-10-29T10:48:19;1.73;;;1.73;;
12194;SDS011;27023;42.680;23.132;2022-10-29T10:50:50;1.80;;;1.80;;
12194;SDS011;27023;42.680;23.132;2022-10-29T10:53:19;2.30;;;2.20;;
12194;SDS011;27023;42.680;23.132;2022-10-29T10:55:49;2.00;;;2.00;;
12194;SDS011;27023;42.680;23.132;2022-10-29T10:58:18;1.73;;;1.73;;
12194;SDS011;27023;42.680;23.132;2022-10-29T11:00:53;1.90;;;1.90;;
12194;SDS011;27023;42.680;23.132;2022-10-29T11:03:23;1.77;;;1.77;;
12194;SDS011;27023;42.680;23.132;2022-10-29T11:05:58;1.60;;;1.60;;
12194;SDS011;27023;42.680;23.132;2022-10-29T11:08:29;1.97;;;1.97;;
12194;SDS011;27023;42.680;23.132;2022-10-29T11:11:05;1.90;;;1.90;;
12194;SDS011;27023;42.680;23.132;2022-10-29T11:13:35;1.97;;;1.97;;
12194;SDS011;27023;42.680;23.132;2022-10-29T11:16:06;1.30;;;1.30;;
12194;SDS011;27023;42.680;23.132;2022-10-29T11:18:42;1.60;;;1.60;;
12194;SDS011;27023;42.680;23.132;2022-10-29T11:21:15;1.77;;;1.77;;
12194;SDS011;27023;42.680;23.132;2022-10-29T11:23:47;1.23;;;1.23;;
12194;SDS011;27023;42.680;23.132;2022-10-29T11:26:26;2.10;;;1.87;;
12194;SDS011;27023;42.680;23.132;2022-10-29T11:28:58;1.30;;;1.30;;
12194;SDS011;27023;42.680;23.132;2022-10-29T11:31:35;1.07;;;1.07;;
12194;SDS011;27023;42.680;23.132;2022-10-29T11:34:08;2.30;;;2.10;;
12194;SDS011;27023;42.680;23.132;2022-10-29T11:36:39;1.63;;;1.60;;
12194;SDS011;27023;42.680;23.132;2022-10-29T11:39:12;1.60;;;1.60;;
12194;SDS011;27023;42.680;23.132;2022-10-29T11:41:47;1.43;;;1.43;;
12194;SDS011;27023;42.680;23.132;2022-10-29T11:44:20;2.17;;;2.17;;
12194;SDS011;27023;42.680;23.132;2022-10-29T11:46:51;1.17;;;1.17;;
12194;SDS011;27023;42.680;23.132;2022-10-29T11:49:32;1.13;;;1.13;;
12194;SDS011;27023;42.680;23.132;2022-10-29T11:52:09;1.70;;;1.70;;
12194;SDS011;27023;42.680;23.132;2022-10-29T11:54:45;1.50;;;1.50;;
12194;SDS011;27023;42.680;23.132;2022-10-29T11:57:26;2.03;;;2.03;;
12194;SDS011;27023;42.680;23.132;2022-10-29T12:00:02;1.83;;;1.83;;
12194;SDS011;27023;42.680;23.132;2022-10-29T12:02:38;1.70;;;1.70;;
12194;SDS011;27023;42.680;23.132;2022-10-29T12:05:19;2.13;;;2.13;;
12194;SDS011;27023;42.680;23.132;2022-10-29T12:08:08;2.60;;;2.53;;
12194;SDS011;27023;42.680;23.132;2022-10-29T12:10:53;1.77;;;1.77;;
12194;SDS011;27023;42.680;23.132;2022-10-29T12:13:41;1.33;;;1.33;;
12194;SDS011;27023;42.680;23.132;2022-10-29T12:16:25;1.67;;;1.67;;
12194;SDS011;27023;42.680;23.132;2022-10-29T12:19:01;1.63;;;1.63;;
12194;SDS011;27023;42.680;23.132;2022-10-29T12:21:35;1.17;;;1.17;;
12194;SDS011;27023;42.680;23.132;2022-10-29T12:24:20;2.07;;;2.03;;
12194;SDS011;27023;42.680;23.132;2022-10-29T12:26:58;1.10;;;1.10;;
12194;SDS011;27023;42.680;23.132;2022-10-29T12:29:34;1.00;;;1.00;;
12194;SDS011;27023;42.680;23.132;2022-10-29T12:32:12;1.10;;;1.10;;
12194;SDS011;27023;42.680;23.132;2022-10-29T12:34:45;1.10;;;1.10;;
12194;SDS011;27023;42.680;23.132;2022-10-29T12:37:22;1.20;;;1.20;;
12194;SDS011;27023;42.680;23.132;2022-10-29T12:39:59;1.37;;;1.37;;
12194;SDS011;27023;42.680;23.132;2022-10-29T12:42:30;1.43;;;1.43;;
12194;SDS011;27023;42.680;23.132;2022-10-29T12:45:04;0.90;;;0.90;;
12194;SDS011;27023;42.680;23.132;2022-10-29T12:47:43;1.10;;;1.10;;
12194;SDS011;27023;42.680;23.132;2022-10-29T12:50:22;2.33;;;2.10;;
12194;SDS011;27023;42.680;23.132;2022-10-29T12:53:00;3.73;;;2.70;;
12194;SDS011;27023;42.680;23.132;2022-10-29T12:55:29;1.27;;;1.27;;
12194;SDS011;27023;42.680;23.132;2022-10-29T12:57:58;1.40;;;1.40;;
12194;SDS011;27023;42.680;23.132;2022-10-29T13:00:46;1.33;;;1.33;;
12194;SDS011;27023;42.680;23.132;2022-10-29T13:09:17;1.77;;;1.77;;
12194;SDS011;27023;42.680;23.132;2022-10-29T13:11:46;1.70;;;1.70;;
12194;SDS011;27023;42.680;23.132;2022-10-29T13:14:17;1.47;;;1.47;;
12194;SDS011;27023;42.680;23.132;2022-10-29T13:16:50;1.23;;;1.23;;
12194;SDS011;27023;42.680;23.132;2022-10-29T13:19:24;1.57;;;1.53;;
12194;SDS011;27023;42.680;23.132;2022-10-29T13:22:03;1.73;;;1.73;;
12194;SDS011;27023;42.680;23.132;2022-10-29T13:34:20;0.93;;;0.93;;
12194;SDS011;27023;42.680;23.132;2022-10-29T13:40:40;1.57;;;1.57;;
12194;SDS011;27023;42.680;23.132;2022-10-29T13:43:28;1.37;;;1.37;;
12194;SDS011;27023;42.680;23.132;2022-10-29T13:46:06;1.47;;;1.47;;
12194;SDS011;27023;42.680;23.132;2022-10-29T13:48:54;1.57;;;1.57;;
12194;SDS011;27023;42.680;23.132;2022-10-29T13:51:31;1.50;;;1.50;;
12194;SDS011;27023;42.680;23.132;2022-10-29T13:54:05;1.20;;;1.20;;
12194;SDS011;27023;42.680;23.132;2022-10-29T13:56:42;1.10;;;1.10;;
12194;SDS011;27023;42.680;23.132;2022-10-29T13:59:15;1.07;;;1.07;;
12194;SDS011;27023;42.680;23.132;2022-10-29T14:01:53;1.57;;;1.57;;
12194;SDS011;27023;42.680;23.132;2022-10-29T14:04:25;1.00;;;1.00;;
12194;SDS011;27023;42.680;23.132;2022-10-29T14:06:57;1.30;;;1.30;;
12194;SDS011;27023;42.680;23.132;2022-10-29T14:09:27;1.23;;;1.23;;
12194;SDS011;27023;42.680;23.132;2022-10-29T14:12:02;1.20;;;1.20;;
12194;SDS011;27023;42.680;23.132;2022-10-29T14:14:32;1.37;;;1.37;;
12194;SDS011;27023;42.680;23.132;2022-10-29T14:17:09;1.10;;;1.10;;
12194;SDS011;27023;42.680;23.132;2022-10-29T14:19:41;1.53;;;1.53;;
12194;SDS011;27023;42.680;23.132;2022-10-29T14:22:20;1.20;;;1.20;;
12194;SDS011;27023;42.680;23.132;2022-10-29T14:24:48;2.50;;;2.40;;
12194;SDS011;27023;42.680;23.132;2022-10-29T14:27:15;11.43;;;11.00;;
12194;SDS011;27023;42.680;23.132;2022-10-29T14:29:42;22.77;;;21.80;;
12194;SDS011;27023;42.680;23.132;2022-10-29T14:32:10;28.80;;;27.43;;
12194;SDS011;27023;42.680;23.132;2022-10-29T14:34:39;51.27;;;48.73;;
12194;SDS011;27023;42.680;23.132;2022-10-29T14:37:06;1.93;;;1.83;;
12194;SDS011;27023;42.680;23.132;2022-10-29T14:39:43;1.63;;;1.63;;
12194;SDS011;27023;42.680;23.132;2022-10-29T14:42:14;25.77;;;24.60;;
12194;SDS011;27023;42.680;23.132;2022-10-29T14:44:45;32.80;;;31.30;;
12194;SDS011;27023;42.680;23.132;2022-10-29T14:47:17;37.87;;;36.07;;
12194;SDS011;27023;42.680;23.132;2022-10-29T14:49:48;36.73;;;34.93;;
12194;SDS011;27023;42.680;23.132;2022-10-29T14:52:21;44.83;;;42.63;;
12194;SDS011;27023;42.680;23.132;2022-10-29T14:54:54;52.97;;;50.33;;
12194;SDS011;27023;42.680;23.132;2022-10-29T14:57:24;56.27;;;53.47;;
12194;SDS011;27023;42.680;23.132;2022-10-29T14:59:55;39.87;;;37.97;;
12194;SDS011;27023;42.680;23.132;2022-10-29T15:02:24;34.77;;;33.17;;
12194;SDS011;27023;42.680;23.132;2022-10-29T15:04:59;37.27;;;35.57;;
12194;SDS011;27023;42.680;23.132;2022-10-29T15:07:27;30.70;;;29.27;;
12194;SDS011;27023;42.680;23.132;2022-10-29T15:10:14;30.67;;;29.27;;